CheckWX is a tool to help pilots better visualize weather data.  It is not intended as a substitute for an official pre-flight weather briefing.

10:03:17 UTC

KMGM TAF
Montgomery Regional (Dannelly Field) Airport
Montgomery, Alabama, USA
KMGM 200520Z 2006/2106 10014G20KT P6SM OVC015 FM200800 09013G20KT P6SM OVC007 FM201600 11013G18KT 6SM BR VCSH SCT007 OVC012 FM202000 14012G18KT 4SM -SHRA BR VCTS OVC007CB PROB30 2021/2024 VRB12G19KT 2SM TSRA BR OVC007CB

Feb-20@
06:00 UTC

Feb-20 @ 06:00 UTC

Feb-20@
08:00 UTC

Feb-20 @ 08:00 UTC

KMGM 200520Z 2006/2106 10014G20KT P6SM OVC015

Expired

Wind
  • 100° at 14 KTS
  • {Gusting to 20 KTS
Visibility
10,000+ meters
Cloud Levels
  • Overcast at 1,500' AGL

Feb-20@
08:00 UTC

Feb-20 @ 08:00 UTC

Feb-20@
16:00 UTC

Feb-20 @ 16:00 UTC

FM200800 09013G20KT P6SM OVC007

From

FromStandard forecast or significant change

Wind
  • 090° at 13 KTS
  • {Gusting to 20 KTS
Visibility
10,000+ meters
Cloud Levels
  • Overcast at 700' AGL

Feb-20@
16:00 UTC

Feb-20 @ 16:00 UTC

Feb-20@
20:00 UTC

Feb-20 @ 20:00 UTC

FM201600 11013G18KT 6SM BR VCSH SCT007 OVC012

From

FromStandard forecast or significant change

Wind
  • 110° at 13 KTS
  • {Gusting to 18 KTS
Visibility
9,656 meters
Conditions
Mist
Cloud Levels
  • Scattered at 700' AGL
  • Overcast at 1,200' AGL

Feb-20@
20:00 UTC

Feb-20 @ 20:00 UTC

Feb-21@
06:00 UTC

Feb-21 @ 06:00 UTC

FM202000 14012G18KT 4SM -SHRA BR VCTS OVC007CB

From

FromStandard forecast or significant change

Wind
  • 140° at 12 KTS
  • {Gusting to 18 KTS
Visibility
6,437 meters
Conditions
Light Rain, Mist, Area Thunderstorm
Cloud Levels
  • Overcast at 700' AGL

Feb-20@
21:00 UTC

Feb-20 @ 21:00 UTC

Feb-21@
00:00 UTC

Feb-21 @ 00:00 UTC

PROB30 2021/2024 VRB12G19KT 2SM TSRA BR OVC007CB

Probable - 30% Likelihood

Probable - 30% Likelihood during this time.

Wind
  • Variable at 12 KTS
  • {Gusting to 19 KTS
Visibility
3,219 meters
Conditions
Thunderstorm, Rain, Mist
Cloud Levels
  • Overcast at 700' AGL